Aérodrome :
LOGIN :

S'inscrire | Disclaimer

   EN    FR    IT 

 










Légende :    VFR   VFR Marginal   IFR   IFR Intensif   IFR Très Intensif
Visi : 
Plafond : 
>= 8 km
>= 3000ft
5 à 8 km
1000 à 3000 ft
1500m à 5 km
500 à 1000 ft
800 à 1500m
200 à 500 ft
< 800m
< 200 ft
Symboles :   Orages  Brouillard  Fortes neiges  Fortes précipitations  Vent > 20 kt
SIGMETs :   Divers  Orages  Givrage  Turbulence  Onde Orograph.  Cendres Volcan.






- Altitude de l'aérodrome : 278 ft
- Code IATA : RJK


LDRI - Rijeka

DERNIER METAR :
  • 261530Z 08003KT 040V120 9999 FEW035 SCT045 21/13 Q1018

METARs EXPIRÉS :
  • 261500Z 04007KT 9999 -RA FEW035 BKN040 19/15 Q1018
  • 261430Z 02008KT 9999 FEW035 BKN040 18/14 Q1018
  • 261400Z 01008KT 9999 FEW035 BKN040 18/15 Q1018
  • 261330Z 05006KT 350V110 9999 -RA FEW035 SCT040 19/15 Q1018
  • 261300Z 02005KT 9999 -RA FEW035 SCT040 20/14 Q1018
  • 261230Z 07012KT 9999 -RA FEW035TCU SCT040 20/14 Q1018
  • 261200Z VRB04KT 9999 VCTS FEW035CB FEW040 24/10 Q1017
  • 261130Z VRB03KT 9999 FEW045 25/12 Q1017
  • 261100Z VRB05KT 9999 FEW045 24/10 Q1017

TAF AMD TAF LDRI
Valide du 26 à 12h jusqu'au 27 à 12h UTC


261159Z 2612/2712 06005KT CAVOK TX25/2613Z TN17/2704Z
PROB40
TEMPO 2612/2614 TSRA FEW035CB
PROB30
TEMPO 2612/2616 14007KT
BECMG 2709/2711 32007KT



MET'MAP, la Météo Aéronautique d'un coup d'oeil ! - Copyright ORBIFLY Décembre 2007 - Disclaimer

ORBIFLY MET'MAP TEAM :

Programmation & Développement : Alexandra Zaïnal
Sur une idée originale de : Baudouin d'Aumeries
Soutien technique & logistique : Manuel Goepfert
Assistance : Marc-Olivier Méhu




SOURCES & CREDITS :

   NOAA